createdAt,value
2018-07-02T00:00:33.835Z,1010.01
2018-07-02T00:01:33.854Z,1009.95
2018-07-02T00:02:33.877Z,1010.02
2018-07-02T00:03:33.895Z,1010.00
2018-07-02T00:04:33.914Z,1010.00
2018-07-02T00:05:33.936Z,1010.05
2018-07-02T00:06:33.955Z,1010.01
2018-07-02T00:07:33.976Z,1010.03
2018-07-02T00:08:33.993Z,1009.98
2018-07-02T00:09:34.017Z,1009.97
2018-07-02T00:10:34.040Z,1010.00
2018-07-02T00:11:34.055Z,1009.99
2018-07-02T00:12:34.075Z,1010.01
2018-07-02T00:13:34.098Z,1010.01
2018-07-02T00:14:34.120Z,1010.01
2018-07-02T00:15:34.139Z,1010.06
2018-07-02T00:16:34.158Z,1010.03
2018-07-02T00:17:34.181Z,1010.07
2018-07-02T00:18:34.195Z,1010.04
2018-07-02T00:19:34.219Z,1010.05
2018-07-02T00:20:34.239Z,1010.06
2018-07-02T00:21:34.262Z,1010.02
2018-07-02T00:22:34.282Z,1010.04
2018-07-02T00:23:34.301Z,1010.07
2018-07-02T00:24:34.321Z,1010.03
2018-07-02T00:25:34.342Z,1010.07
2018-07-02T00:26:34.364Z,1010.02
2018-07-02T00:27:34.378Z,1010.00
2018-07-02T00:28:34.396Z,1010.04
2018-07-02T00:29:34.419Z,1010.05
2018-07-02T00:30:34.444Z,1010.06
2018-07-02T00:31:34.461Z,1010.04
2018-07-02T00:32:34.481Z,1010.02
2018-07-02T00:33:34.500Z,1010.01
2018-07-02T00:34:34.528Z,1010.01
2018-07-02T00:35:34.541Z,1009.99
2018-07-02T00:36:34.561Z,1010.03
2018-07-02T00:37:34.577Z,1009.99
2018-07-02T00:38:34.602Z,1010.00
2018-07-02T00:39:34.624Z,1009.94
2018-07-02T00:40:34.650Z,1009.95
2018-07-02T00:41:34.660Z,1009.92
2018-07-02T00:42:34.687Z,1009.88
2018-07-02T00:43:34.701Z,1009.91
2018-07-02T00:44:34.718Z,1009.92
2018-07-02T00:45:34.741Z,1009.91
2018-07-02T00:46:34.761Z,1009.87
2018-07-02T00:47:34.780Z,1009.85
2018-07-02T00:48:34.801Z,1009.86
2018-07-02T00:49:34.823Z,1009.90
2018-07-02T00:50:34.839Z,1009.89
2018-07-02T00:51:34.861Z,1009.87
2018-07-02T00:52:34.878Z,1009.90
2018-07-02T00:53:34.904Z,1009.93
2018-07-02T00:54:34.921Z,1009.93
2018-07-02T00:55:34.942Z,1009.91
2018-07-02T00:56:34.962Z,1009.92
2018-07-02T00:57:34.988Z,1009.96
2018-07-02T00:58:34.998Z,1009.93
2018-07-02T00:59:35.023Z,1009.92
2018-07-02T01:00:35.037Z,1009.92
2018-07-02T01:01:35.061Z,1009.90
2018-07-02T01:02:35.082Z,1009.94
2018-07-02T01:03:35.100Z,1009.87
2018-07-02T01:04:35.120Z,1009.90
2018-07-02T01:05:35.140Z,1009.87
2018-07-02T01:06:35.161Z,1009.85
2018-07-02T01:07:35.178Z,1009.86
2018-07-02T01:08:35.196Z,1009.89
2018-07-02T01:09:35.223Z,1009.89
2018-07-02T01:10:35.248Z,1009.86
2018-07-02T01:11:35.263Z,1009.93
2018-07-02T01:12:35.281Z,1009.92
2018-07-02T01:13:35.308Z,1009.92
2018-07-02T01:14:35.320Z,1009.94
2018-07-02T01:15:35.338Z,1009.94
2018-07-02T01:16:35.358Z,1009.89
2018-07-02T01:17:35.382Z,1009.93
2018-07-02T01:18:35.407Z,1009.92
2018-07-02T01:19:35.420Z,1009.90
2018-07-02T01:20:35.440Z,1009.90
2018-07-02T01:21:35.455Z,1009.90
2018-07-02T01:22:35.478Z,1009.89
2018-07-02T01:23:35.495Z,1009.82
2018-07-02T01:24:35.519Z,1009.83
2018-07-02T01:25:35.538Z,1009.85
2018-07-02T01:26:35.558Z,1009.84
2018-07-02T01:27:35.575Z,1009.82
2018-07-02T01:28:35.601Z,1009.84
2018-07-02T01:29:35.613Z,1009.84
2018-07-02T01:30:35.636Z,1009.83
2018-07-02T01:31:35.652Z,1009.86
2018-07-02T01:32:35.676Z,1009.88
2018-07-02T01:33:35.696Z,1009.88
2018-07-02T01:34:35.716Z,1009.89
2018-07-02T01:35:35.741Z,1009.96
2018-07-02T01:36:35.764Z,1009.91
2018-07-02T01:37:35.770Z,1009.97
2018-07-02T01:38:35.809Z,1009.94
2018-07-02T01:39:35.811Z,1009.96
2018-07-02T01:40:35.833Z,1009.93
2018-07-02T01:41:35.853Z,1009.87
2018-07-02T01:42:35.873Z,1009.88
2018-07-02T01:43:35.891Z,1009.88
2018-07-02T01:44:35.917Z,1009.89
2018-07-02T01:45:35.930Z,1009.90
2018-07-02T01:46:35.994Z,1009.91
2018-07-02T01:47:35.968Z,1009.98
2018-07-02T01:48:35.993Z,1009.95
2018-07-02T01:49:36.008Z,1009.94
2018-07-02T01:50:36.031Z,1009.98
2018-07-02T01:51:36.048Z,1009.97
2018-07-02T01:52:36.068Z,1009.97
2018-07-02T01:53:36.090Z,1009.99
2018-07-02T02:23:34.089Z,1010.02
2018-07-02T02:24:34.078Z,1010.02
2018-07-02T02:26:27.021Z,1009.98
2018-07-02T02:27:27.008Z,1009.97
2018-07-02T02:29:19.924Z,1009.92
2018-07-02T02:30:19.934Z,1009.96
2018-07-02T02:32:12.873Z,1009.95
2018-07-02T02:33:12.866Z,1009.91
2018-07-02T02:35:05.788Z,1009.86
2018-07-02T02:36:05.802Z,1009.88
2018-07-02T02:37:58.746Z,1009.97
2018-07-02T02:38:58.730Z,1009.97
2018-07-02T02:40:51.652Z,1009.94
2018-07-02T02:41:51.663Z,1009.95
2018-07-02T02:43:44.606Z,1009.93
2018-07-02T02:44:44.600Z,1009.95
2018-07-02T02:46:37.545Z,1010.01
2018-07-02T02:47:37.534Z,1009.96
2018-07-02T02:49:30.468Z,1009.96
2018-07-02T02:50:30.484Z,1009.94
2018-07-02T02:52:23.427Z,1009.89
2018-07-02T02:53:23.417Z,1009.89
2018-07-02T02:55:16.352Z,1009.88
2018-07-02T02:56:16.359Z,1009.85
2018-07-02T02:58:09.303Z,1009.88
2018-07-02T02:59:09.299Z,1009.92
2018-07-02T03:01:02.222Z,1009.91
2018-07-02T03:02:02.233Z,1009.92
2018-07-02T03:03:02.257Z,1009.92
2018-07-02T03:04:02.279Z,1009.93
2018-07-02T03:05:02.296Z,1009.88
2018-07-02T03:06:02.311Z,1009.92
2018-07-02T03:07:02.331Z,1009.90
2018-07-02T03:08:02.354Z,1009.89
2018-07-02T03:09:02.369Z,1009.86
2018-07-02T03:10:02.392Z,1009.86
2018-07-02T03:11:02.407Z,1009.87
2018-07-02T03:12:02.428Z,1009.92
2018-07-02T03:13:02.446Z,1009.86
2018-07-02T03:14:02.465Z,1009.91
2018-07-02T03:15:02.484Z,1009.89
2018-07-02T03:16:02.507Z,1009.86
2018-07-02T03:17:02.521Z,1009.89
2018-07-02T03:18:02.545Z,1009.84
2018-07-02T03:19:02.562Z,1009.86
2018-07-02T03:20:02.578Z,1009.77
2018-07-02T03:21:02.599Z,1009.87
2018-07-02T03:22:02.619Z,1009.81
2018-07-02T03:23:02.641Z,1009.88
2018-07-02T03:24:02.656Z,1009.83
2018-07-02T03:25:02.677Z,1009.82
2018-07-02T03:26:02.697Z,1009.87
2018-07-02T03:27:02.714Z,1009.89
2018-07-02T03:28:02.733Z,1009.89
2018-07-02T03:29:02.759Z,1009.89
2018-07-02T03:30:02.779Z,1009.91
2018-07-02T03:31:02.789Z,1009.93
2018-07-02T03:32:02.819Z,1009.96
2018-07-02T03:33:02.828Z,1009.99
2018-07-02T03:34:02.850Z,1009.93
2018-07-02T03:35:02.867Z,1009.96
2018-07-02T03:36:02.884Z,1010.00
2018-07-02T03:37:02.902Z,1010.01
2018-07-02T03:38:02.933Z,1010.00
2018-07-02T03:39:02.942Z,1010.05
2018-07-02T03:40:02.963Z,1010.03
2018-07-02T03:41:02.981Z,1010.04
2018-07-02T03:42:03.001Z,1010.09
2018-07-02T03:43:03.020Z,1010.08
2018-07-02T03:44:03.042Z,1010.04
2018-07-02T03:45:03.057Z,1010.07
2018-07-02T03:46:03.077Z,1010.09
2018-07-02T03:47:03.097Z,1010.05
2018-07-02T03:48:03.120Z,1010.09
2018-07-02T03:49:03.133Z,1010.09
2018-07-02T03:50:03.154Z,1010.08
2018-07-02T03:51:03.174Z,1010.13
2018-07-02T03:52:03.206Z,1010.14
2018-07-02T03:53:03.210Z,1010.15
2018-07-02T03:54:03.225Z,1010.16
2018-07-02T03:55:03.249Z,1010.20
2018-07-02T03:56:03.269Z,1010.15
2018-07-02T03:57:03.287Z,1010.23
2018-07-02T03:58:03.308Z,1010.24
2018-07-02T03:59:03.325Z,1010.29
2018-07-02T04:00:03.350Z,1010.22
2018-07-02T04:01:03.361Z,1010.24
2018-07-02T04:02:03.384Z,1010.23
2018-07-02T04:03:03.406Z,1010.23
2018-07-02T04:04:03.418Z,1010.21
2018-07-02T04:05:03.443Z,1010.20
2018-07-02T04:06:03.461Z,1010.21
2018-07-02T04:07:03.479Z,1010.20
2018-07-02T04:08:03.499Z,1010.28
2018-07-02T04:09:03.516Z,1010.22
2018-07-02T04:10:03.534Z,1010.20
2018-07-02T04:11:03.554Z,1010.22
2018-07-02T04:12:03.604Z,1010.25
2018-07-02T04:13:03.628Z,1010.24
2018-07-02T04:14:03.613Z,1010.26
2018-07-02T04:15:03.636Z,1010.26
2018-07-02T04:16:03.651Z,1010.25
2018-07-02T04:17:03.670Z,1010.25
2018-07-02T04:18:03.686Z,1010.21
2018-07-02T04:19:03.708Z,1010.20
2018-07-02T04:20:03.728Z,1010.25
2018-07-02T04:21:03.747Z,1010.21
2018-07-02T04:22:03.767Z,1010.25
2018-07-02T04:23:03.787Z,1010.28
2018-07-02T04:24:03.805Z,1010.30
2018-07-02T04:25:03.823Z,1010.33
2018-07-02T04:26:03.842Z,1010.30
2018-07-02T04:27:03.868Z,1010.26
2018-07-02T04:28:03.881Z,1010.27
2018-07-02T04:29:03.901Z,1010.32
2018-07-02T04:30:03.921Z,1010.28
2018-07-02T04:31:03.937Z,1010.28
2018-07-02T04:32:03.959Z,1010.30
2018-07-02T04:33:03.978Z,1010.30
2018-07-02T04:34:03.996Z,1010.29
2018-07-02T04:35:04.021Z,1010.23
2018-07-02T04:36:04.033Z,1010.20
2018-07-02T04:37:04.054Z,1010.28
2018-07-02T04:38:04.077Z,1010.25
2018-07-02T04:39:04.094Z,1010.23
2018-07-02T04:40:04.113Z,1010.18
2018-07-02T04:41:04.138Z,1010.22
2018-07-02T04:42:04.173Z,1010.23
2018-07-02T04:43:04.169Z,1010.22
2018-07-02T04:44:04.186Z,1010.23
2018-07-02T04:45:04.233Z,1010.27
2018-07-02T04:46:04.226Z,1010.27
2018-07-02T04:47:04.248Z,1010.33
2018-07-02T04:48:04.266Z,1010.33
2018-07-02T04:49:04.286Z,1010.38
2018-07-02T04:50:04.306Z,1010.39
2018-07-02T04:51:04.336Z,1010.38
2018-07-02T04:52:04.346Z,1010.36
2018-07-02T04:53:04.363Z,1010.33
2018-07-02T04:54:04.384Z,1010.30
2018-07-02T04:55:04.402Z,1010.33
2018-07-02T04:56:04.421Z,1010.32
2018-07-02T04:57:04.440Z,1010.29
2018-07-02T04:58:04.467Z,1010.27
2018-07-02T04:59:04.479Z,1010.23
2018-07-02T05:00:04.499Z,1010.29
2018-07-02T05:01:04.519Z,1010.29
2018-07-02T05:02:04.539Z,1010.30
2018-07-02T05:03:04.555Z,1010.30
2018-07-02T05:04:04.578Z,1010.28
2018-07-02T05:05:04.601Z,1010.24
2018-07-02T05:06:04.616Z,1010.22
2018-07-02T05:07:04.635Z,1010.21
2018-07-02T05:08:04.655Z,1010.21
2018-07-02T05:09:04.674Z,1010.18
2018-07-02T05:10:04.695Z,1010.21
2018-07-02T05:11:04.712Z,1010.22
2018-07-02T05:12:04.883Z,1010.25
2018-07-02T05:13:04.759Z,1010.17
2018-07-02T05:14:04.770Z,1010.17
2018-07-02T05:15:04.791Z,1010.19
2018-07-02T05:16:04.810Z,1010.13
2018-07-02T05:17:04.857Z,1010.12
2018-07-02T05:18:04.850Z,1010.13
2018-07-02T05:19:04.870Z,1010.09
2018-07-02T05:20:04.888Z,1010.15
2018-07-02T05:21:04.907Z,1010.17
2018-07-02T05:22:04.928Z,1010.18
2018-07-02T05:23:04.943Z,1010.15
2018-07-02T05:24:04.964Z,1010.22
2018-07-02T05:25:04.981Z,1010.21
2018-07-02T05:26:05.009Z,1010.34
2018-07-02T05:27:05.028Z,1010.60
2018-07-02T05:28:05.045Z,1010.84
2018-07-02T05:29:05.067Z,1010.96
2018-07-02T05:30:05.084Z,1011.02
2018-07-02T05:31:05.105Z,1011.09
2018-07-02T05:32:05.129Z,1011.24
2018-07-02T05:33:05.146Z,1011.44
2018-07-02T05:34:05.169Z,1011.56
2018-07-02T05:35:05.191Z,1011.66
2018-07-02T05:36:05.213Z,1011.73
2018-07-02T05:37:05.234Z,1011.70
2018-07-02T05:38:05.258Z,1011.72
2018-07-02T05:39:05.289Z,1011.89
2018-07-02T05:40:05.307Z,1011.91
2018-07-02T05:41:05.332Z,1011.93
2018-07-02T05:42:05.357Z,1011.89
2018-07-02T05:43:05.378Z,1011.81
2018-07-02T05:44:05.407Z,1011.78
2018-07-02T05:45:05.429Z,1011.83
2018-07-02T05:46:05.552Z,1011.73
2018-07-02T05:47:05.480Z,1011.78
2018-07-02T05:48:05.508Z,1011.67
2018-07-02T05:49:05.536Z,1011.59
2018-07-02T05:50:05.563Z,1011.44
2018-07-02T05:51:05.588Z,1011.32
2018-07-02T05:52:05.619Z,1011.18
2018-07-02T05:53:05.653Z,1011.14
2018-07-02T05:54:05.675Z,1011.14
2018-07-02T05:55:05.700Z,1011.05
2018-07-02T05:56:05.729Z,1011.03
2018-07-02T05:57:05.769Z,1011.08
2018-07-02T05:58:05.780Z,1011.06
2018-07-02T05:59:05.813Z,1011.06
2018-07-02T06:00:05.878Z,1011.09
2018-07-02T06:01:05.861Z,1011.04
2018-07-02T06:02:05.891Z,1011.04
2018-07-02T06:03:05.922Z,1011.05
2018-07-02T06:04:05.951Z,1011.10
2018-07-02T06:05:05.980Z,1011.12
2018-07-02T06:06:06.012Z,1011.10
2018-07-02T06:07:06.066Z,1011.10
2018-07-02T06:08:06.109Z,1011.08
2018-07-02T06:09:06.096Z,1011.13
2018-07-02T06:10:06.143Z,1011.12
2018-07-02T06:11:06.177Z,1011.15
2018-07-02T06:12:06.196Z,1011.19
2018-07-02T06:13:06.215Z,1011.30
2018-07-02T06:14:06.251Z,1011.32
2018-07-02T06:15:06.275Z,1011.34
2018-07-02T06:16:06.307Z,1011.41
2018-07-02T06:17:06.334Z,1011.60
2018-07-02T06:18:06.364Z,1011.59
2018-07-02T06:19:06.394Z,1011.62
2018-07-02T06:20:06.416Z,1011.54
2018-07-02T06:21:06.450Z,1011.44
2018-07-02T06:22:06.481Z,1011.24
2018-07-02T06:23:06.508Z,1011.09
2018-07-02T06:24:06.545Z,1010.97
2018-07-02T06:25:06.577Z,1010.88
2018-07-02T06:26:06.604Z,1010.86
2018-07-02T06:27:06.633Z,1010.88
2018-07-02T06:28:06.662Z,1010.86
2018-07-02T06:29:06.697Z,1010.90
2018-07-02T06:30:06.723Z,1010.94
2018-07-02T06:31:06.757Z,1010.94
2018-07-02T06:32:07.313Z,1010.91
2018-07-02T06:33:06.817Z,1010.83
2018-07-02T06:34:06.845Z,1010.83
2018-07-02T06:35:06.869Z,1010.82
2018-07-02T06:36:06.901Z,1010.79
2018-07-02T06:37:06.936Z,1010.79
2018-07-02T06:38:06.965Z,1010.84
2018-07-02T06:39:06.997Z,1010.94
2018-07-02T06:40:07.025Z,1010.98
2018-07-02T06:41:07.057Z,1011.05
2018-07-02T06:42:07.093Z,1011.07
2018-07-02T06:43:07.126Z,1011.14
2018-07-02T06:44:07.148Z,1011.16
2018-07-02T06:45:07.257Z,1011.14
2018-07-02T06:46:07.281Z,1011.16
2018-07-02T06:47:07.297Z,1011.12
2018-07-02T06:48:07.315Z,1011.14
2018-07-02T06:49:07.380Z,1011.14
2018-07-02T06:51:12.140Z,1011.16
2018-07-02T06:52:10.343Z,1011.15
2018-07-02T06:53:09.943Z,1011.15
2018-07-02T06:54:10.929Z,1011.17
2018-07-02T06:55:11.077Z,1011.25
2018-07-02T06:56:11.711Z,1011.23
2018-07-02T06:57:29.364Z,1011.20
2018-07-02T06:58:11.547Z,1011.20
2018-07-02T06:59:08.640Z,1011.25
2018-07-02T07:00:20.878Z,1011.25
2018-07-02T07:01:13.967Z,1011.23
2018-07-02T07:02:08.886Z,1011.22
2018-07-02T07:03:30.712Z,1011.21
2018-07-02T07:04:08.942Z,1011.24
2018-07-02T07:05:09.830Z,1011.21
2018-07-02T07:06:09.729Z,1011.20
2018-07-02T07:07:09.101Z,1011.27
2018-07-02T07:08:09.733Z,1011.26
2018-07-02T07:09:30.192Z,1011.27
2018-07-02T07:10:10.190Z,1011.26
2018-07-02T07:11:10.155Z,1011.26
2018-07-02T07:12:09.745Z,1011.30
2018-07-02T07:13:09.354Z,1011.32
2018-07-02T07:14:10.508Z,1011.31
2018-07-02T07:15:31.165Z,1011.27
2018-07-02T07:16:09.995Z,1011.40
2018-07-02T07:17:16.011Z,1011.40
2018-07-02T07:18:11.670Z,1011.39
2018-07-02T07:19:10.105Z,1011.34
2018-07-02T07:20:10.535Z,1011.37
2018-07-02T07:21:31.191Z,1011.38
2018-07-02T07:22:09.407Z,1011.37
2018-07-02T07:23:10.782Z,1011.39
2018-07-02T07:24:10.491Z,1011.45
2018-07-02T07:25:11.918Z,1011.43
2018-07-02T07:26:09.572Z,1011.41
2018-07-02T07:27:30.492Z,1011.41
2018-07-02T07:28:15.127Z,1011.42
2018-07-02T07:29:14.761Z,1011.38
2018-07-02T07:30:13.288Z,1011.33
2018-07-02T07:31:09.757Z,1011.35
2018-07-02T07:32:10.253Z,1011.30
2018-07-02T07:33:32.092Z,1011.29
2018-07-02T07:34:10.476Z,1011.29
2018-07-02T07:35:11.555Z,1011.29
2018-07-02T07:36:09.196Z,1011.24
2018-07-02T07:37:10.033Z,1011.30
2018-07-02T07:38:09.305Z,1011.29
2018-07-02T07:39:30.358Z,1011.28
2018-07-02T07:40:09.368Z,1011.27
2018-07-02T07:41:09.397Z,1011.30
2018-07-02T07:42:09.510Z,1011.21
2018-07-02T07:43:09.500Z,1011.31
2018-07-02T07:44:09.467Z,1011.22
2018-07-02T07:45:30.546Z,1011.18
2018-07-02T07:46:09.753Z,1011.15
2018-07-02T07:47:09.696Z,1011.21
2018-07-02T07:48:09.748Z,1011.16
2018-07-02T07:49:09.699Z,1011.23
2018-07-02T07:50:09.564Z,1011.23
2018-07-02T07:51:30.601Z,1011.27
2018-07-02T07:52:09.617Z,1011.33
2018-07-02T07:53:09.711Z,1011.32
2018-07-02T07:54:09.697Z,1011.35
2018-07-02T07:55:09.724Z,1011.30
2018-07-02T07:56:09.753Z,1011.32
2018-07-02T07:57:30.842Z,1011.34
2018-07-02T07:58:09.807Z,1011.34
2018-07-02T07:59:09.870Z,1011.31
2018-07-02T08:00:09.854Z,1011.32
2018-07-02T08:01:10.035Z,1011.31
2018-07-02T08:02:09.988Z,1011.29
2018-07-02T08:03:30.956Z,1011.30
2018-07-02T08:04:09.963Z,1011.32
2018-07-02T08:05:10.116Z,1011.30
2018-07-02T08:06:10.023Z,1011.30
2018-07-02T08:07:10.082Z,1011.27
2018-07-02T08:08:10.107Z,1011.23
2018-07-02T08:09:31.153Z,1011.23
2018-07-02T08:10:10.195Z,1011.20
2018-07-02T08:11:10.174Z,1011.20
2018-07-02T08:12:10.190Z,1011.21
2018-07-02T08:13:10.246Z,1011.26
2018-07-02T08:14:10.290Z,1011.28
2018-07-02T08:15:31.282Z,1011.21
2018-07-02T08:16:10.323Z,1011.21
2018-07-02T08:17:10.733Z,1011.15
2018-07-02T08:18:11.113Z,1011.19
2018-07-02T08:19:10.462Z,1011.17
2018-07-02T08:20:10.451Z,1011.14
2018-07-02T08:21:31.788Z,1011.19
2018-07-02T08:22:10.500Z,1011.12
2018-07-02T08:23:10.495Z,1011.08
2018-07-02T08:24:10.548Z,1011.03
2018-07-02T08:25:10.592Z,1011.05
2018-07-02T08:26:10.590Z,1011.05
2018-07-02T08:27:31.661Z,1011.06
2018-07-02T08:28:10.816Z,1011.06
2018-07-02T08:29:10.717Z,1011.05
2018-07-02T08:30:10.933Z,1011.07
2018-07-02T08:31:10.782Z,1011.10
